sensor_id;sensor_type;location;lat;lon;timestamp;pressure;altitude;pressure_sealevel;temperature;humidity
22605;BME280;11469;49.024;8.246;2023-01-28T00:00:27;101163.81;;;2.63;85.59
22605;BME280;11469;49.024;8.246;2023-01-28T00:02:53;101165.50;;;2.59;85.30
22605;BME280;11469;49.024;8.246;2023-01-28T00:05:18;101172.69;;;2.60;85.85
22605;BME280;11469;49.024;8.246;2023-01-28T00:07:43;101164.16;;;2.56;85.86
22605;BME280;11469;49.024;8.246;2023-01-28T00:10:09;101163.63;;;2.54;85.50
22605;BME280;11469;49.024;8.246;2023-01-28T00:12:34;101161.69;;;2.55;85.80
22605;BME280;11469;49.024;8.246;2023-01-28T00:15:00;101164.53;;;2.45;86.95
22605;BME280;11469;49.024;8.246;2023-01-28T00:17:25;101169.16;;;2.54;85.92
22605;BME280;11469;49.024;8.246;2023-01-28T00:19:51;101159.97;;;2.59;85.44
22605;BME280;11469;49.024;8.246;2023-01-28T00:22:16;101159.44;;;2.57;84.95
22605;BME280;11469;49.024;8.246;2023-01-28T00:24:41;101167.47;;;2.58;84.75
22605;BME280;11469;49.024;8.246;2023-01-28T00:27:07;101161.88;;;2.63;84.75
22605;BME280;11469;49.024;8.246;2023-01-28T00:29:32;101157.22;;;2.59;84.32
22605;BME280;11469;49.024;8.246;2023-01-28T00:31:58;101163.81;;;2.63;82.56
22605;BME280;11469;49.024;8.246;2023-01-28T00:34:23;101158.56;;;2.61;83.27
22605;BME280;11469;49.024;8.246;2023-01-28T00:36:49;101162.47;;;2.60;83.34
22605;BME280;11469;49.024;8.246;2023-01-28T00:39:22;101155.28;;;2.59;83.43
22605;BME280;11469;49.024;8.246;2023-01-28T00:41:48;101153.31;;;2.60;83.85
22605;BME280;11469;49.024;8.246;2023-01-28T00:44:13;101156.38;;;2.58;84.36
22605;BME280;11469;49.024;8.246;2023-01-28T00:46:39;101162.22;;;2.57;84.63
22605;BME280;11469;49.024;8.246;2023-01-28T00:49:06;101155.31;;;2.54;84.93
22605;BME280;11469;49.024;8.246;2023-01-28T00:51:32;101164.72;;;2.53;85.39
22605;BME280;11469;49.024;8.246;2023-01-28T00:53:58;101165.31;;;2.50;85.75
22605;BME280;11469;49.024;8.246;2023-01-28T00:56:23;101168.63;;;2.52;85.76
22605;BME280;11469;49.024;8.246;2023-01-28T00:58:49;101171.09;;;2.54;85.71
22605;BME280;11469;49.024;8.246;2023-01-28T01:01:25;101166.66;;;2.53;85.86
22605;BME280;11469;49.024;8.246;2023-01-28T01:03:52;101169.72;;;2.51;86.00
22605;BME280;11469;49.024;8.246;2023-01-28T01:06:32;101158.66;;;2.51;85.93
22605;BME280;11469;49.024;8.246;2023-01-28T01:08:59;101150.91;;;2.53;86.10
22605;BME280;11469;49.024;8.246;2023-01-28T01:11:25;101157.28;;;2.49;86.17
22605;BME280;11469;49.024;8.246;2023-01-28T01:13:52;101158.09;;;2.54;86.54
22605;BME280;11469;49.024;8.246;2023-01-28T01:16:19;101163.56;;;2.59;86.37
22605;BME280;11469;49.024;8.246;2023-01-28T01:18:45;101163.63;;;2.54;86.29
22605;BME280;11469;49.024;8.246;2023-01-28T01:21:15;101154.25;;;2.50;86.58
22605;BME280;11469;49.024;8.246;2023-01-28T01:23:45;101164.19;;;2.51;86.82
22605;BME280;11469;49.024;8.246;2023-01-28T01:26:11;101158.09;;;2.54;87.07
22605;BME280;11469;49.024;8.246;2023-01-28T01:28:37;101169.41;;;2.58;87.30
22605;BME280;11469;49.024;8.246;2023-01-28T01:31:09;101165.50;;;2.59;87.04
22605;BME280;11469;49.024;8.246;2023-01-28T01:33:35;101160.81;;;2.59;87.26
22605;BME280;11469;49.024;8.246;2023-01-28T01:36:01;101161.38;;;2.56;87.59
22605;BME280;11469;49.024;8.246;2023-01-28T01:38:27;101167.47;;;2.58;87.63
22605;BME280;11469;49.024;8.246;2023-01-28T01:40:56;101168.31;;;2.54;87.98
22605;BME280;11469;49.024;8.246;2023-01-28T01:43:22;101161.63;;;2.60;87.69
22605;BME280;11469;49.024;8.246;2023-01-28T01:45:55;101164.91;;;2.67;87.23
22605;BME280;11469;49.024;8.246;2023-01-28T01:48:35;101167.66;;;2.67;87.24
22605;BME280;11469;49.024;8.246;2023-01-28T01:51:06;101164.41;;;2.60;87.52
22605;BME280;11469;49.024;8.246;2023-01-28T01:53:36;101167.41;;;2.63;88.03
22605;BME280;11469;49.024;8.246;2023-01-28T01:56:05;101173.81;;;2.59;88.14
22605;BME280;11469;49.024;8.246;2023-01-28T01:58:36;101163.38;;;2.51;89.12
22605;BME280;11469;49.024;8.246;2023-01-28T02:01:03;101168.31;;;2.54;89.30
22605;BME280;11469;49.024;8.246;2023-01-28T02:03:35;101162.41;;;2.65;89.49
22605;BME280;11469;49.024;8.246;2023-01-28T02:06:02;101167.41;;;2.63;89.57
22605;BME280;11469;49.024;8.246;2023-01-28T02:08:28;101169.34;;;2.63;90.24
22605;BME280;11469;49.024;8.246;2023-01-28T02:11:07;101165.22;;;2.60;90.11
22605;BME280;11469;49.024;8.246;2023-01-28T02:13:38;101170.25;;;2.53;90.23
22605;BME280;11469;49.024;8.246;2023-01-28T02:16:06;101161.19;;;2.48;91.21
22605;BME280;11469;49.024;8.246;2023-01-28T02:18:32;101160.34;;;2.47;91.71
22605;BME280;11469;49.024;8.246;2023-01-28T02:24:01;101157.88;;;2.46;92.81
22605;BME280;11469;49.024;8.246;2023-01-28T02:29:22;101155.69;;;2.43;93.76
22605;BME280;11469;49.024;8.246;2023-01-28T02:32:02;101161.56;;;2.36;94.51
22605;BME280;11469;49.024;8.246;2023-01-28T02:34:34;101149.06;;;2.39;94.79
22605;BME280;11469;49.024;8.246;2023-01-28T02:39:58;101149.03;;;2.44;95.32
22605;BME280;11469;49.024;8.246;2023-01-28T02:42:36;101160.06;;;2.49;95.82
22605;BME280;11469;49.024;8.246;2023-01-28T02:45:22;101162.28;;;2.47;96.33
22605;BME280;11469;49.024;8.246;2023-01-28T02:47:48;101159.00;;;2.45;96.88
22605;BME280;11469;49.024;8.246;2023-01-28T02:50:25;101151.50;;;2.45;96.86
22605;BME280;11469;49.024;8.246;2023-01-28T02:53:09;101161.47;;;2.46;97.53
22605;BME280;11469;49.024;8.246;2023-01-28T03:01:27;101174.97;;;2.53;98.11
22605;BME280;11469;49.024;8.246;2023-01-28T03:04:08;101177.53;;;2.44;98.01
22605;BME280;11469;49.024;8.246;2023-01-28T03:06:40;101167.50;;;2.53;98.37
22605;BME280;11469;49.024;8.246;2023-01-28T03:09:10;101178.00;;;2.56;98.61
22605;BME280;11469;49.024;8.246;2023-01-28T03:14:49;101176.09;;;2.52;99.04
22605;BME280;11469;49.024;8.246;2023-01-28T03:17:44;101168.13;;;2.45;99.23
22605;BME280;11469;49.024;8.246;2023-01-28T03:20:38;101173.63;;;2.50;99.88
22605;BME280;11469;49.024;8.246;2023-01-28T03:23:31;101171.72;;;2.46;100.00
22605;BME280;11469;49.024;8.246;2023-01-28T03:26:16;101173.41;;;2.42;100.00
22605;BME280;11469;49.024;8.246;2023-01-28T03:29:07;101170.59;;;2.47;100.00
22605;BME280;11469;49.024;8.246;2023-01-28T03:31:54;101169.78;;;2.46;100.00
22605;BME280;11469;49.024;8.246;2023-01-28T03:34:39;101171.38;;;2.52;100.00
22605;BME280;11469;49.024;8.246;2023-01-28T03:37:24;101180.81;;;2.51;100.00
22605;BME280;11469;49.024;8.246;2023-01-28T03:39:51;101186.63;;;2.50;100.00
22605;BME280;11469;49.024;8.246;2023-01-28T03:42:17;101188.56;;;2.49;100.00
22605;BME280;11469;49.024;8.246;2023-01-28T03:44:43;101188.53;;;2.54;100.00
22605;BME280;11469;49.024;8.246;2023-01-28T03:47:27;101187.41;;;2.55;100.00
22605;BME280;11469;49.024;8.246;2023-01-28T03:49:55;101181.06;;;2.55;100.00
22605;BME280;11469;49.024;8.246;2023-01-28T03:52:28;101189.34;;;2.55;100.00
22605;BME280;11469;49.024;8.246;2023-01-28T03:54:55;101195.72;;;2.55;100.00
22605;BME280;11469;49.024;8.246;2023-01-28T03:57:24;101197.94;;;2.53;100.00
22605;BME280;11469;49.024;8.246;2023-01-28T03:59:50;101194.88;;;2.55;100.00
22605;BME280;11469;49.024;8.246;2023-01-28T04:02:17;101195.19;;;2.53;100.00
22605;BME280;11469;49.024;8.246;2023-01-28T04:04:43;101198.19;;;2.57;100.00
22605;BME280;11469;49.024;8.246;2023-01-28T04:07:10;101199.88;;;2.53;100.00
22605;BME280;11469;49.024;8.246;2023-01-28T04:09:38;101199.88;;;2.53;100.00
22605;BME280;11469;49.024;8.246;2023-01-28T04:12:04;101192.69;;;2.52;100.00
22605;BME280;11469;49.024;8.246;2023-01-28T04:14:30;101193.53;;;2.52;100.00
22605;BME280;11469;49.024;8.246;2023-01-28T04:16:55;101196.00;;;2.54;100.00
22605;BME280;11469;49.024;8.246;2023-01-28T04:19:21;101194.88;;;2.55;100.00
22605;BME280;11469;49.024;8.246;2023-01-28T04:21:47;101211.50;;;2.55;100.00
22605;BME280;11469;49.024;8.246;2023-01-28T04:24:13;101199.63;;;2.49;100.00
22605;BME280;11469;49.024;8.246;2023-01-28T04:26:39;101206.28;;;2.48;100.00
22605;BME280;11469;49.024;8.246;2023-01-28T04:29:05;101209.28;;;2.52;100.00
22605;BME280;11469;49.024;8.246;2023-01-28T04:31:31;101212.38;;;2.45;100.00
22605;BME280;11469;49.024;8.246;2023-01-28T04:33:57;101217.94;;;2.45;100.00
22605;BME280;11469;49.024;8.246;2023-01-28T04:36:23;101217.94;;;2.45;100.00
22605;BME280;11469;49.024;8.246;2023-01-28T04:38:48;101221.22;;;2.47;100.00
22605;BME280;11469;49.024;8.246;2023-01-28T04:41:14;101211.25;;;2.51;100.00
22605;BME280;11469;49.024;8.246;2023-01-28T04:43:40;101224.28;;;2.46;100.00
22605;BME280;11469;49.024;8.246;2023-01-28T04:46:05;101209.03;;;2.48;100.00
22605;BME280;11469;49.024;8.246;2023-01-28T04:48:30;101216.81;;;2.46;99.92
22605;BME280;11469;49.024;8.246;2023-01-28T04:50:56;101223.47;;;2.45;100.00
22605;BME280;11469;49.024;8.246;2023-01-28T04:53:22;101215.72;;;2.42;99.77
22605;BME280;11469;49.024;8.246;2023-01-28T04:55:47;101212.13;;;2.42;99.79
22605;BME280;11469;49.024;8.246;2023-01-28T04:58:13;101212.69;;;2.44;99.93
22605;BME280;11469;49.024;8.246;2023-01-28T05:00:38;101217.97;;;2.40;99.39
22605;BME280;11469;49.024;8.246;2023-01-28T05:03:04;101229.31;;;2.39;99.38
22605;BME280;11469;49.024;8.246;2023-01-28T05:05:29;101214.91;;;2.42;99.88
22605;BME280;11469;49.024;8.246;2023-01-28T05:07:56;101220.97;;;2.44;100.00
22605;BME280;11469;49.024;8.246;2023-01-28T05:10:22;101230.69;;;2.41;99.64
22605;BME280;11469;49.024;8.246;2023-01-28T05:12:48;101229.84;;;2.41;99.85
22605;BME280;11469;49.024;8.246;2023-01-28T05:15:15;101224.84;;;2.43;99.36
22605;BME280;11469;49.024;8.246;2023-01-28T05:17:40;101234.28;;;2.42;99.57
22605;BME280;11469;49.024;8.246;2023-01-28T05:20:07;101229.28;;;2.44;99.30
22605;BME280;11469;49.024;8.246;2023-01-28T05:22:33;101225.13;;;2.46;98.76
22605;BME280;11469;49.024;8.246;2023-01-28T05:24:58;101236.22;;;2.41;98.77
22605;BME280;11469;49.024;8.246;2023-01-28T05:27:24;101241.56;;;2.32;99.90
22605;BME280;11469;49.024;8.246;2023-01-28T05:29:49;101241.25;;;2.34;100.00
22605;BME280;11469;49.024;8.246;2023-01-28T05:32:14;101241.22;;;2.39;100.00
22605;BME280;11469;49.024;8.246;2023-01-28T05:34:40;101239.84;;;2.37;100.00
22605;BME280;11469;49.024;8.246;2023-01-28T05:37:05;101241.25;;;2.34;100.00
22605;BME280;11469;49.024;8.246;2023-01-28T05:39:30;101242.38;;;2.33;100.00
22605;BME280;11469;49.024;8.246;2023-01-28T05:41:56;101237.69;;;2.28;100.00
22605;BME280;11469;49.024;8.246;2023-01-28T05:44:21;101241.31;;;2.29;100.00
22605;BME280;11469;49.024;8.246;2023-01-28T05:46:47;101248.50;;;2.25;100.00
22605;BME280;11469;49.024;8.246;2023-01-28T05:49:12;101250.19;;;2.21;100.00
22605;BME280;11469;49.024;8.246;2023-01-28T05:51:38;101251.84;;;2.22;100.00
22605;BME280;11469;49.024;8.246;2023-01-28T05:54:05;101257.94;;;2.19;100.00
22605;BME280;11469;49.024;8.246;2023-01-28T05:56:30;101259.31;;;2.21;100.00
22605;BME280;11469;49.024;8.246;2023-01-28T05:58:56;101260.41;;;2.25;100.00
22605;BME280;11469;49.024;8.246;2023-01-28T06:01:21;101261.81;;;2.23;100.00
22605;BME280;11469;49.024;8.246;2023-01-28T06:03:46;101270.34;;;2.26;100.00
22605;BME280;11469;49.024;8.246;2023-01-28T06:06:12;101268.13;;;2.28;100.00
22605;BME280;11469;49.024;8.246;2023-01-28T06:08:37;101280.06;;;2.24;100.00
22605;BME280;11469;49.024;8.246;2023-01-28T06:11:03;101269.81;;;2.24;100.00
22605;BME280;11469;49.024;8.246;2023-01-28T06:13:28;101281.97;;;2.28;100.00
22605;BME280;11469;49.024;8.246;2023-01-28T06:15:53;101283.66;;;2.24;100.00
22605;BME280;11469;49.024;8.246;2023-01-28T06:18:19;101299.16;;;2.20;100.00
22605;BME280;11469;49.024;8.246;2023-01-28T06:20:44;101286.13;;;2.26;100.00
22605;BME280;11469;49.024;8.246;2023-01-28T06:23:09;101291.94;;;2.24;100.00
22605;BME280;11469;49.024;8.246;2023-01-28T06:25:35;101304.38;;;2.27;100.00
22605;BME280;11469;49.024;8.246;2023-01-28T06:28:00;101299.69;;;2.27;100.00
22605;BME280;11469;49.024;8.246;2023-01-28T06:30:25;101308.53;;;2.24;100.00
22605;BME280;11469;49.024;8.246;2023-01-28T06:32:54;101308.25;;;2.31;100.00
22605;BME280;11469;49.024;8.246;2023-01-28T06:35:20;101311.81;;;2.31;99.49
22605;BME280;11469;49.024;8.246;2023-01-28T06:37:45;101309.63;;;2.28;99.49
22605;BME280;11469;49.024;8.246;2023-01-28T06:40:11;101300.50;;;2.28;99.43
22605;BME280;11469;49.024;8.246;2023-01-28T06:42:36;101311.03;;;2.26;99.47
22605;BME280;11469;49.024;8.246;2023-01-28T06:45:02;101304.94;;;2.29;99.42
22605;BME280;11469;49.024;8.246;2023-01-28T06:47:27;101309.09;;;2.26;99.45
22605;BME280;11469;49.024;8.246;2023-01-28T06:49:53;101314.34;;;2.28;99.12
22605;BME280;11469;49.024;8.246;2023-01-28T06:52:18;101316.84;;;2.24;98.70
22605;BME280;11469;49.024;8.246;2023-01-28T06:54:43;101324.59;;;2.22;99.13
22605;BME280;11469;49.024;8.246;2023-01-28T06:57:09;101331.25;;;2.21;99.18
22605;BME280;11469;49.024;8.246;2023-01-28T06:59:34;101325.13;;;2.24;99.01
22605;BME280;11469;49.024;8.246;2023-01-28T07:01:59;101328.44;;;2.26;98.96
22605;BME280;11469;49.024;8.246;2023-01-28T07:04:25;101336.22;;;2.24;99.09
22605;BME280;11469;49.024;8.246;2023-01-28T07:06:50;101336.78;;;2.21;98.91
22605;BME280;11469;49.024;8.246;2023-01-28T07:09:16;101343.97;;;2.22;99.05
22605;BME280;11469;49.024;8.246;2023-01-28T07:11:41;101338.44;;;2.22;99.09
22605;BME280;11469;49.024;8.246;2023-01-28T07:14:06;101342.59;;;2.20;98.81
22605;BME280;11469;49.024;8.246;2023-01-28T07:16:32;101343.13;;;2.22;98.73
22605;BME280;11469;49.024;8.246;2023-01-28T07:18:57;101346.19;;;2.20;98.68
22605;BME280;11469;49.024;8.246;2023-01-28T07:21:23;101347.28;;;2.24;98.77
22605;BME280;11469;49.024;8.246;2023-01-28T07:23:48;101341.47;;;2.26;98.61
22605;BME280;11469;49.024;8.246;2023-01-28T07:26:13;101348.38;;;2.23;98.15
22605;BME280;11469;49.024;8.246;2023-01-28T07:28:40;101347.28;;;2.24;97.78
22605;BME280;11469;49.024;8.246;2023-01-28T07:31:05;101344.78;;;2.23;97.66
22605;BME280;11469;49.024;8.246;2023-01-28T07:33:30;101351.72;;;2.20;97.81
22605;BME280;11469;49.024;8.246;2023-01-28T07:35:56;101349.75;;;2.26;97.89
22605;BME280;11469;49.024;8.246;2023-01-28T07:38:21;101360.00;;;2.25;97.23
22605;BME280;11469;49.024;8.246;2023-01-28T07:40:47;101359.44;;;2.23;97.42
22605;BME280;11469;49.024;8.246;2023-01-28T07:43:12;101365.53;;;2.20;97.31
22605;BME280;11469;49.024;8.246;2023-01-28T07:45:38;101367.47;;;2.25;97.37
22605;BME280;11469;49.024;8.246;2023-01-28T07:48:06;101367.47;;;2.20;97.55
22605;BME280;11469;49.024;8.246;2023-01-28T07:50:34;101357.78;;;2.22;97.18
22605;BME280;11469;49.024;8.246;2023-01-28T07:53:10;101360.84;;;2.21;97.26
22605;BME280;11469;49.024;8.246;2023-01-28T07:55:36;101366.09;;;2.22;97.49
22605;BME280;11469;49.024;8.246;2023-01-28T07:58:04;101362.50;;;2.22;97.54
22605;BME280;11469;49.024;8.246;2023-01-28T08:00:32;101371.06;;;2.20;97.87
22605;BME280;11469;49.024;8.246;2023-01-28T08:02:59;101376.31;;;2.22;97.84
22605;BME280;11469;49.024;8.246;2023-01-28T08:05:25;101369.69;;;2.23;97.67
22605;BME280;11469;49.024;8.246;2023-01-28T08:07:54;101372.16;;;2.24;97.85
22605;BME280;11469;49.024;8.246;2023-01-28T08:10:19;101378.78;;;2.28;97.90
22605;BME280;11469;49.024;8.246;2023-01-28T08:12:55;101382.41;;;2.24;98.23
22605;BME280;11469;49.024;8.246;2023-01-28T08:15:22;101389.59;;;2.25;97.95
22605;BME280;11469;49.024;8.246;2023-01-28T08:17:47;101384.63;;;2.22;98.47
22605;BME280;11469;49.024;8.246;2023-01-28T08:20:13;101392.09;;;2.21;98.65
22605;BME280;11469;49.024;8.246;2023-01-28T08:22:38;101394.59;;;2.23;99.39
22605;BME280;11469;49.024;8.246;2023-01-28T08:25:04;101384.91;;;2.20;99.62
22605;BME280;11469;49.024;8.246;2023-01-28T08:27:29;101388.50;;;2.21;99.80
22605;BME280;11469;49.024;8.246;2023-01-28T08:29:55;101392.94;;;2.17;99.79
22605;BME280;11469;49.024;8.246;2023-01-28T08:32:20;101391.28;;;2.11;100.00
22605;BME280;11469;49.024;8.246;2023-01-28T08:34:46;101398.75;;;2.15;100.00
22605;BME280;11469;49.024;8.246;2023-01-28T08:37:11;101397.63;;;2.16;100.00
22605;BME280;11469;49.024;8.246;2023-01-28T08:39:36;101399.28;;;2.22;100.00
22605;BME280;11469;49.024;8.246;2023-01-28T08:42:02;101399.81;;;2.24;100.00
22605;BME280;11469;49.024;8.246;2023-01-28T08:44:27;101400.13;;;2.23;100.00
22605;BME280;11469;49.024;8.246;2023-01-28T08:46:52;101406.22;;;2.15;100.00
22605;BME280;11469;49.024;8.246;2023-01-28T08:49:18;101408.72;;;2.11;100.00
22605;BME280;11469;49.024;8.246;2023-01-28T08:51:43;101405.41;;;2.14;100.00
22605;BME280;11469;49.024;8.246;2023-01-28T08:54:09;101415.63;;;2.19;100.00
22605;BME280;11469;49.024;8.246;2023-01-28T08:56:34;101412.31;;;2.17;100.00
22605;BME280;11469;49.024;8.246;2023-01-28T08:59:01;101398.75;;;2.20;100.00
22605;BME280;11469;49.024;8.246;2023-01-28T09:01:26;101403.44;;;2.20;100.00
22605;BME280;11469;49.024;8.246;2023-01-28T09:03:53;101401.22;;;2.22;100.00
22605;BME280;11469;49.024;8.246;2023-01-28T09:06:19;101406.47;;;2.23;100.00
22605;BME280;11469;49.024;8.246;2023-01-28T09:08:44;101401.22;;;2.27;100.00
22605;BME280;11469;49.024;8.246;2023-01-28T09:11:09;101410.91;;;2.19;100.00
22605;BME280;11469;49.024;8.246;2023-01-28T09:13:35;101402.88;;;2.28;100.00
22605;BME280;11469;49.024;8.246;2023-01-28T09:16:03;101408.13;;;2.24;100.00
22605;BME280;11469;49.024;8.246;2023-01-28T09:18:29;101409.78;;;2.30;100.00
22605;BME280;11469;49.024;8.246;2023-01-28T09:20:54;101413.66;;;2.29;100.00
22605;BME280;11469;49.024;8.246;2023-01-28T09:23:19;101419.13;;;2.40;100.00
22605;BME280;11469;49.024;8.246;2023-01-28T09:25:45;101417.19;;;2.40;100.00
22605;BME280;11469;49.024;8.246;2023-01-28T09:28:10;101413.03;;;2.43;100.00
22605;BME280;11469;49.024;8.246;2023-01-28T09:30:36;101416.34;;;2.40;99.86
22605;BME280;11469;49.024;8.246;2023-01-28T09:33:01;101417.72;;;2.42;100.00
22605;BME280;11469;49.024;8.246;2023-01-28T09:35:27;101421.59;;;2.46;100.00
22605;BME280;11469;49.024;8.246;2023-01-28T09:37:55;101420.47;;;2.52;99.35
22605;BME280;11469;49.024;8.246;2023-01-28T09:43:23;101421.81;;;2.60;99.07
22605;BME280;11469;49.024;8.246;2023-01-28T09:45:47;101431.72;;;2.71;98.42
22605;BME280;11469;49.024;8.246;2023-01-28T09:48:22;101429.25;;;2.70;97.33
22605;BME280;11469;49.024;8.246;2023-01-28T09:50:51;101438.13;;;2.66;96.99
22605;BME280;11469;49.024;8.246;2023-01-28T09:53:24;101441.44;;;2.69;97.07
22605;BME280;11469;49.024;8.246;2023-01-28T09:56:04;101443.06;;;2.75;97.04
22605;BME280;11469;49.024;8.246;2023-01-28T09:58:31;101445.53;;;2.81;97.02
22605;BME280;11469;49.024;8.246;2023-01-28T10:11:57;101437.81;;;2.73;95.85
22605;BME280;11469;49.024;8.246;2023-01-28T10:14:50;101439.81;;;2.57;96.10
22605;BME280;11469;49.024;8.246;2023-01-28T10:20:02;101439.78;;;2.62;96.39
22605;BME280;11469;49.024;8.246;2023-01-28T10:22:35;101433.94;;;2.69;95.86
22605;BME280;11469;49.024;8.246;2023-01-28T10:25:05;101431.75;;;2.66;96.20
22605;BME280;11469;49.024;8.246;2023-01-28T10:27:33;101433.94;;;2.69;96.86
22605;BME280;11469;49.024;8.246;2023-01-28T10:30:15;101434.81;;;2.64;96.98
22605;BME280;11469;49.024;8.246;2023-01-28T10:32:51;101436.47;;;2.65;97.37
22605;BME280;11469;49.024;8.246;2023-01-28T10:35:17;101426.22;;;2.66;97.35
22605;BME280;11469;49.024;8.246;2023-01-28T10:37:43;101435.03;;;2.73;97.16
22605;BME280;11469;49.024;8.246;2023-01-28T10:40:14;101433.06;;;2.79;97.05
22605;BME280;11469;49.024;8.246;2023-01-28T10:42:40;101437.75;;;2.83;96.73
22605;BME280;11469;49.024;8.246;2023-01-28T10:45:30;101440.63;;;2.63;97.31
22605;BME280;11469;49.024;8.246;2023-01-28T10:48:03;101442.53;;;2.67;98.49
22605;BME280;11469;49.024;8.246;2023-01-28T10:50:31;101436.72;;;2.69;98.50
22605;BME280;11469;49.024;8.246;2023-01-28T10:53:05;101451.38;;;2.75;97.53
22605;BME280;11469;49.024;8.246;2023-01-28T10:58:17;101451.91;;;2.77;97.91
22605;BME280;11469;49.024;8.246;2023-01-28T11:00:44;101450.84;;;2.67;97.09
22605;BME280;11469;49.024;8.246;2023-01-28T11:03:17;101441.69;;;2.72;96.98
22605;BME280;11469;49.024;8.246;2023-01-28T11:05:49;101443.91;;;2.70;97.22
22605;BME280;11469;49.024;8.246;2023-01-28T11:08:16;101442.78;;;2.76;97.59
22605;BME280;11469;49.024;8.246;2023-01-28T11:10:43;101445.84;;;2.75;96.10
22605;BME280;11469;49.024;8.246;2023-01-28T11:13:26;101450.81;;;2.73;96.46
22605;BME280;11469;49.024;8.246;2023-01-28T11:18:29;101437.31;;;2.56;96.39
22605;BME280;11469;49.024;8.246;2023-01-28T11:21:04;101441.16;;;2.65;97.75
22605;BME280;11469;49.024;8.246;2023-01-28T11:23:33;101446.66;;;2.75;97.43
22605;BME280;11469;49.024;8.246;2023-01-28T11:26:06;101448.28;;;2.81;96.75
22605;BME280;11469;49.024;8.246;2023-01-28T11:28:32;101444.94;;;2.84;95.41
22605;BME280;11469;49.024;8.246;2023-01-28T11:31:00;101446.84;;;2.89;95.23
22605;BME280;11469;49.024;8.246;2023-01-28T11:34:03;101450.41;;;2.94;94.75
22605;BME280;11469;49.024;8.246;2023-01-28T11:36:24;101449.31;;;2.90;94.79
22605;BME280;11469;49.024;8.246;2023-01-28T11:39:01;101446.31;;;2.87;94.08
22605;BME280;11469;49.024;8.246;2023-01-28T11:41:33;101450.81;;;2.78;93.56
22605;BME280;11469;49.024;8.246;2023-01-28T11:44:04;101460.47;;;2.80;93.66
22605;BME280;11469;49.024;8.246;2023-01-28T11:58:20;101457.16;;;2.78;94.11
22605;BME280;11469;49.024;8.246;2023-01-28T12:01:05;101454.41;;;2.78;94.87
22605;BME280;11469;49.024;8.246;2023-01-28T12:09:22;101449.63;;;2.89;93.30
22605;BME280;11469;49.024;8.246;2023-01-28T12:11:52;101446.81;;;2.94;92.21
22605;BME280;11469;49.024;8.246;2023-01-28T12:20:18;101438.53;;;2.89;92.66
22605;BME280;11469;49.024;8.246;2023-01-28T12:28:07;101432.13;;;2.98;92.50
22605;BME280;11469;49.024;8.246;2023-01-28T12:30:41;101426.28;;;3.00;92.09
22605;BME280;11469;49.024;8.246;2023-01-28T12:34:25;101434.28;;;3.07;91.57
22605;BME280;11469;49.024;8.246;2023-01-28T12:36:18;101432.91;;;3.04;91.02
22605;BME280;11469;49.024;8.246;2023-01-28T12:41:28;101425.97;;;3.07;89.40
22605;BME280;11469;49.024;8.246;2023-01-28T12:44:03;101426.19;;;3.15;89.49
22605;BME280;11469;49.024;8.246;2023-01-28T12:51:48;101425.59;;;3.23;88.68
22605;BME280;11469;49.024;8.246;2023-01-28T12:56:54;101421.19;;;3.17;87.92
22605;BME280;11469;49.024;8.246;2023-01-28T12:59:41;101422.63;;;3.10;87.65
22605;BME280;11469;49.024;8.246;2023-01-28T13:04:49;101415.72;;;3.07;87.64
22605;BME280;11469;49.024;8.246;2023-01-28T13:07:36;101415.75;;;3.02;86.96
22605;BME280;11469;49.024;8.246;2023-01-28T13:10:23;101413.53;;;3.04;87.49
22605;BME280;11469;49.024;8.246;2023-01-28T13:12:49;101418.75;;;3.11;88.11
22605;BME280;11469;49.024;8.246;2023-01-28T13:15:17;101413.47;;;3.14;88.09
22605;BME280;11469;49.024;8.246;2023-01-28T13:18:01;101412.38;;;3.10;87.03
22605;BME280;11469;49.024;8.246;2023-01-28T13:20:44;101417.41;;;3.03;86.90
22605;BME280;11469;49.024;8.246;2023-01-28T13:23:38;101422.13;;;3.03;86.87
22605;BME280;11469;49.024;8.246;2023-01-28T13:28:44;101421.25;;;3.07;86.13
22605;BME280;11469;49.024;8.246;2023-01-28T13:31:13;101425.16;;;3.06;85.90
22605;BME280;11469;49.024;8.246;2023-01-28T13:39:21;101430.16;;;3.04;84.94
22605;BME280;11469;49.024;8.246;2023-01-28T13:41:49;101428.75;;;3.07;84.92
22605;BME280;11469;49.024;8.246;2023-01-28T13:46:49;101439.25;;;3.10;84.35
22605;BME280;11469;49.024;8.246;2023-01-28T13:49:19;101440.63;;;3.12;84.38
22605;BME280;11469;49.024;8.246;2023-01-28T13:51:56;101442.00;;;3.15;84.21
22605;BME280;11469;49.024;8.246;2023-01-28T13:54:23;101445.38;;;3.07;83.98
22605;BME280;11469;49.024;8.246;2023-01-28T13:59:48;101453.38;;;3.13;85.00
22605;BME280;11469;49.024;8.246;2023-01-28T14:02:41;101453.66;;;3.07;84.92
22605;BME280;11469;49.024;8.246;2023-01-28T14:18:46;101468.25;;;3.22;83.20
22605;BME280;11469;49.024;8.246;2023-01-28T14:21:15;101472.13;;;3.26;83.30
22605;BME280;11469;49.024;8.246;2023-01-28T14:23:48;101477.97;;;3.20;83.06
22605;BME280;11469;49.024;8.246;2023-01-28T14:26:49;101481.03;;;3.18;82.25
22605;BME280;11469;49.024;8.246;2023-01-28T14:32:02;101497.16;;;3.11;82.52
22605;BME280;11469;49.024;8.246;2023-01-28T14:34:34;101504.63;;;3.11;82.73
22605;BME280;11469;49.024;8.246;2023-01-28T14:37:04;101505.72;;;3.15;82.27
22605;BME280;11469;49.024;8.246;2023-01-28T14:39:39;101510.13;;;3.16;82.06
22605;BME280;11469;49.024;8.246;2023-01-28T14:42:13;101503.78;;;3.10;81.48
22605;BME280;11469;49.024;8.246;2023-01-28T14:44:43;101500.50;;;3.03;81.89
22605;BME280;11469;49.024;8.246;2023-01-28T14:57:55;101518.22;;;3.07;80.46
22605;BME280;11469;49.024;8.246;2023-01-28T15:00:26;101515.69;;;3.11;80.50
22605;BME280;11469;49.024;8.246;2023-01-28T15:02:52;101512.69;;;3.02;79.67
22605;BME280;11469;49.024;8.246;2023-01-28T15:05:21;101516.31;;;2.97;79.96
22605;BME280;11469;49.024;8.246;2023-01-28T15:07:47;101514.66;;;2.96;80.33
22605;BME280;11469;49.024;8.246;2023-01-28T15:12:51;101508.28;;;3.01;80.34